Time;durP1;ratioP1;P1;durP2;ratioP2;P2;SDS_P1;SDS_P2;PMS_P1;PMS_P2;Temp;Humidity;BMP_temperature;BMP_pressure;BME280_temperature;BME280_humidity;BME280_pressure;Samples;Min_cycle;Max_cycle;Signal;HPM_P1;HPM_P2
2021/03/25 00:01:27;;;;;;;50.93;23.73;;;;;;;-0.60;100.00;101273.34;4988844;28;20208;-71
2021/03/25 00:03:54;;;;;;;53.07;23.70;;;;;;;-0.65;100.00;101277.47;4981456;28;20539;-74
2021/03/25 00:06:21;;;;;;;50.07;23.03;;;;;;;-0.67;100.00;101286.81;4986681;28;20212;-73
2021/03/25 00:08:47;;;;;;;57.50;25.03;;;;;;;-0.69;100.00;101278.19;4981730;28;20832;-72
2021/03/25 00:11:13;;;;;;;56.90;26.37;;;;;;;-0.66;100.00;101273.16;4987621;28;20676;-73
2021/03/25 00:13:40;;;;;;;50.57;23.97;;;;;;;-0.71;100.00;101268.72;4983551;28;20231;-71
2021/03/25 00:16:08;;;;;;;53.93;23.77;;;;;;;-0.73;100.00;101265.25;4982552;28;20197;-73
2021/03/25 00:18:35;;;;;;;47.20;23.30;;;;;;;-0.75;100.00;101266.91;4983928;28;20214;-73
2021/03/25 00:21:03;;;;;;;51.50;23.77;;;;;;;-0.76;100.00;101263.44;4984359;28;20235;-70
2021/03/25 00:23:29;;;;;;;56.57;24.30;;;;;;;-0.83;100.00;101266.66;4984889;28;20288;-72
2021/03/25 00:25:55;;;;;;;52.67;25.13;;;;;;;-0.81;100.00;101272.69;4987329;28;20205;-72
2021/03/25 00:28:21;;;;;;;55.17;23.70;;;;;;;-0.72;100.00;101264.41;4985392;28;20613;-71
2021/03/25 00:30:47;;;;;;;54.27;23.23;;;;;;;-0.83;100.00;101264.09;4982659;28;20221;-73
2021/03/25 00:33:16;;;;;;;54.53;23.60;;;;;;;-0.86;100.00;101264.00;4983959;28;20688;-72
2021/03/25 00:35:44;;;;;;;55.70;23.73;;;;;;;-0.87;100.00;101262.28;4989209;28;20197;-71
2021/03/25 00:38:11;;;;;;;55.13;23.80;;;;;;;-0.83;100.00;101269.22;4981861;28;20194;-74
2021/03/25 00:40:38;;;;;;;50.23;22.40;;;;;;;-0.83;100.00;101267.50;4985481;28;20229;-74
2021/03/25 00:43:07;;;;;;;56.90;25.70;;;;;;;-0.80;100.00;101266.75;4980027;28;20699;-74
2021/03/25 00:45:35;;;;;;;48.43;22.80;;;;;;;-0.81;100.00;101258.22;4992368;28;20207;-70
2021/03/25 00:48:01;;;;;;;52.00;23.90;;;;;;;-0.79;100.00;101254.00;4980837;28;20202;-73
2021/03/25 00:50:30;;;;;;;56.47;24.57;;;;;;;-0.72;100.00;101249.94;4988019;28;20217;-73
2021/03/25 00:52:58;;;;;;;56.87;25.07;;;;;;;-0.75;100.00;101246.41;4994908;28;20291;-74
2021/03/25 00:55:25;;;;;;;47.10;22.97;;;;;;;-0.76;100.00;101253.22;4982594;28;20255;-74
2021/03/25 00:57:51;;;;;;;55.57;24.73;;;;;;;-0.80;100.00;101244.56;4987627;28;20213;-73
2021/03/25 01:00:23;;;;;;;55.50;23.87;;;;;;;-0.87;100.00;101239.22;4984845;28;20213;-72
2021/03/25 01:02:49;;;;;;;48.30;22.63;;;;;;;-0.92;100.00;101241.63;4969741;28;20672;-73
2021/03/25 01:05:16;;;;;;;53.97;23.93;;;;;;;-0.91;100.00;101233.16;4981228;28;20604;-73
2021/03/25 01:07:42;;;;;;;62.17;25.33;;;;;;;-0.91;100.00;101232.28;4988641;28;20272;-73
2021/03/25 01:10:13;;;;;;;56.47;24.43;;;;;;;-0.98;100.00;101229.53;4979550;28;20500;-73
2021/03/25 01:12:39;;;;;;;52.00;23.23;;;;;;;-0.97;100.00;101233.84;4987819;28;20225;-73
2021/03/25 01:15:07;;;;;;;58.10;23.33;;;;;;;-1.00;100.00;101230.31;4982566;28;20241;-74
2021/03/25 01:17:34;;;;;;;53.07;23.93;;;;;;;-0.97;100.00;101238.06;4986887;28;20589;-72
2021/03/25 01:20:00;;;;;;;51.20;23.53;;;;;;;-0.96;100.00;101232.13;4982846;28;20217;-74
2021/03/25 01:22:26;;;;;;;56.50;24.70;;;;;;;-0.92;100.00;101230.53;4986385;28;20272;-72
2021/03/25 01:24:52;;;;;;;56.03;25.70;;;;;;;-0.92;100.00;101228.84;4974414;28;20202;-72
2021/03/25 01:27:19;;;;;;;47.93;22.00;;;;;;;-0.96;100.00;101232.13;4995546;28;20207;-73
2021/03/25 01:29:45;;;;;;;51.37;24.43;;;;;;;-0.93;100.00;101226.22;4981371;28;20206;-71
2021/03/25 01:32:11;;;;;;;58.70;24.33;;;;;;;-0.93;100.00;101226.22;4981097;28;20217;-73
2021/03/25 01:34:38;;;;;;;50.47;23.13;;;;;;;-0.93;100.00;101228.78;4966704;28;20514;-72
2021/03/25 01:37:04;;;;;;;49.60;22.80;;;;;;;-0.95;100.00;101233.84;4978682;28;20197;-73
2021/03/25 01:39:42;;;;;;;51.13;23.37;;;;;;;-0.99;100.00;101227.78;4997374;28;20221;-71
2021/03/25 01:42:23;;;;;;;48.10;23.07;;;;;;;-0.97;100.00;101233.84;4983459;28;20197;-71
2021/03/25 01:44:50;;;;;;;47.17;23.33;;;;;;;-0.95;100.00;101223.59;4981122;28;20232;-74
2021/03/25 01:47:16;;;;;;;58.30;23.90;;;;;;;-0.94;100.00;101222.81;4983981;28;20205;-74
2021/03/25 01:49:44;;;;;;;46.27;21.63;;;;;;;-0.99;100.00;101222.66;4985927;28;20847;-73
2021/03/25 01:52:51;;;;;;;56.97;25.43;;;;;;;-0.93;100.00;101222.00;4980615;28;20221;-74
2021/03/25 01:55:28;;;;;;;48.23;22.60;;;;;;;-0.98;100.00;101214.16;4984098;28;20204;-73
2021/03/25 01:58:04;;;;;;;46.07;20.67;;;;;;;-1.05;100.00;101207.13;4984906;28;20224;-74
2021/03/25 02:00:42;;;;;;;47.67;22.90;;;;;;;-1.00;100.00;101209.84;4981770;28;20879;-72
2021/03/25 02:03:26;;;;;;;47.77;22.50;;;;;;;-1.05;100.00;101207.13;4975233;28;20209;-74
2021/03/25 02:06:07;;;;;;;51.23;21.73;;;;;;;-1.03;100.00;101204.63;4969007;28;20768;-73
2021/03/25 02:08:46;;;;;;;54.37;23.93;;;;;;;-1.01;100.00;101205.53;4977480;28;20201;-71
2021/03/25 02:11:23;;;;;;;52.73;23.03;;;;;;;-1.04;100.00;101205.41;4977461;28;20580;-75
2021/03/25 02:14:00;;;;;;;51.53;24.57;;;;;;;-1.01;100.00;101201.25;4980329;28;20255;-72
2021/03/25 02:16:37;;;;;;;54.50;23.30;;;;;;;-1.01;100.00;101203.81;4997195;28;20295;-73
2021/03/25 02:19:35;;;;;;;54.20;23.63;;;;;;;-0.95;100.00;101203.13;4976973;28;20900;-73
2021/03/25 02:22:36;;;;;;;51.90;24.20;;;;;;;-0.98;100.00;101208.19;4981542;28;20311;-74
2021/03/25 02:25:07;;;;;;;50.60;22.50;;;;;;;-1.02;100.00;101204.66;5000212;28;20205;-73
2021/03/25 02:28:01;;;;;;;58.83;23.23;;;;;;;-1.00;100.00;101208.13;4980476;28;20205;-72
2021/03/25 02:30:36;;;;;;;47.87;20.60;;;;;;;-0.95;100.00;101200.56;5007822;28;20738;-74
2021/03/25 02:33:10;;;;;;;51.33;23.83;;;;;;;-0.99;100.00;101202.16;4995388;28;20209;-73
2021/03/25 02:35:43;;;;;;;57.53;24.27;;;;;;;-1.00;100.00;101197.91;4985327;28;20211;-74
2021/03/25 02:38:14;;;;;;;54.17;23.90;;;;;;;-0.94;100.00;101202.31;4980122;28;20626;-74
2021/03/25 02:40:48;;;;;;;67.47;26.37;;;;;;;-0.93;100.00;101200.63;4999127;28;20279;-73
2021/03/25 02:43:16;;;;;;;57.57;24.50;;;;;;;-0.92;100.00;101193.00;4996721;28;20202;-73
2021/03/25 02:45:47;;;;;;;60.17;24.83;;;;;;;-0.91;100.00;101199.84;5000204;28;20201;-73
2021/03/25 02:48:18;;;;;;;59.60;25.77;;;;;;;-0.88;100.00;101199.97;4979139;28;20341;-73
2021/03/25 02:50:51;;;;;;;55.67;25.30;;;;;;;-0.87;100.00;101199.13;4997246;28;20744;-74
2021/03/25 02:53:24;;;;;;;55.47;23.93;;;;;;;-0.90;100.00;101200.72;4980893;28;20233;-73
2021/03/25 02:55:55;;;;;;;61.83;24.60;;;;;;;-0.88;100.00;101196.50;4993297;28;20194;-73
2021/03/25 02:58:29;;;;;;;56.70;24.53;;;;;;;-0.83;100.00;101205.19;4978331;28;20601;-73
2021/03/25 03:00:59;;;;;;;48.43;21.97;;;;;;;-0.80;100.00;101197.63;4982247;28;20622;-73
2021/03/25 03:03:31;;;;;;;48.30;22.23;;;;;;;-0.84;100.00;101195.81;4998518;28;20264;-72
2021/03/25 03:06:24;;;;;;;51.83;23.13;;;;;;;-0.87;100.00;101196.56;4983910;28;20776;-75
2021/03/25 03:08:59;;;;;;;55.50;23.97;;;;;;;-0.89;100.00;101193.09;4999546;28;20646;-75
2021/03/25 03:11:28;;;;;;;56.07;22.97;;;;;;;-0.89;100.00;101198.22;4981252;28;20617;-73
2021/03/25 03:14:00;;;;;;;50.63;21.17;;;;;;;-0.91;100.00;101202.41;5002391;28;20237;-76
2021/03/25 03:16:29;;;;;;;53.97;22.77;;;;;;;-0.93;100.00;101198.94;4981831;28;20612;-76
2021/03/25 03:19:01;;;;;;;49.20;22.20;;;;;;;-0.93;100.00;101200.63;4989454;28;20600;-73
2021/03/25 03:21:35;;;;;;;43.77;21.30;;;;;;;-0.96;100.00;101194.59;4986275;28;20605;-74
2021/03/25 03:24:15;;;;;;;48.93;21.17;;;;;;;-0.89;100.00;101203.34;4984975;28;20295;-75
2021/03/25 03:26:55;;;;;;;53.63;22.53;;;;;;;-0.97;100.00;101203.13;4984405;28;20201;-75
2021/03/25 03:29:24;;;;;;;48.60;21.67;;;;;;;-0.97;100.00;101199.66;5002218;28;20316;-75
2021/03/25 03:31:55;;;;;;;55.67;22.20;;;;;;;-0.95;100.00;101203.13;4983111;28;20279;-74
2021/03/25 03:34:40;;;;;;;51.97;22.13;;;;;;;-0.94;100.00;101204.88;5001271;28;20382;-75
2021/03/25 03:37:12;;;;;;;54.77;23.60;;;;;;;-0.92;100.00;101213.47;4979000;28;20929;-73
2021/03/25 03:39:45;;;;;;;48.40;21.17;;;;;;;-0.94;100.00;101211.69;4985010;28;20224;-75
2021/03/25 03:42:20;;;;;;;51.57;21.83;;;;;;;-0.89;100.00;101212.72;4984336;28;20235;-73
2021/03/25 03:44:50;;;;;;;48.07;20.97;;;;;;;-0.89;100.00;101211.00;4983134;28;20204;-74
2021/03/25 03:47:24;;;;;;;40.43;19.57;;;;;;;-0.96;100.00;101212.50;4997326;28;20229;-72
2021/03/25 03:49:56;;;;;;;45.53;20.00;;;;;;;-0.93;100.00;101208.31;4997786;28;20226;-75
2021/03/25 03:52:27;;;;;;;51.97;22.63;;;;;;;-1.02;100.00;101207.22;4988368;28;20260;-74
2021/03/25 03:55:01;;;;;;;45.93;20.20;;;;;;;-1.01;100.00;101202.97;4975418;28;20197;-75
2021/03/25 03:57:36;;;;;;;47.97;21.23;;;;;;;-1.05;100.00;101208.81;4984036;28;20292;-74
2021/03/25 04:00:10;;;;;;;46.27;21.70;;;;;;;-1.02;100.00;101202.09;4993418;28;20215;-75
2021/03/25 04:02:47;;;;;;;48.67;22.17;;;;;;;-1.03;100.00;101205.47;4991494;28;20550;-75
2021/03/25 04:05:41;;;;;;;57.00;22.17;;;;;;;-1.01;100.00;101201.25;4985779;28;20229;-73
2021/03/25 04:08:22;;;;;;;48.50;21.50;;;;;;;-0.96;100.00;101201.41;5004864;28;20212;-74
2021/03/25 04:11:15;;;;;;;51.63;20.80;;;;;;;-0.93;100.00;101208.31;4980948;28;20213;-74
2021/03/25 04:13:45;;;;;;;51.50;21.60;;;;;;;-0.91;100.00;101204.13;4988409;28;20590;-75
2021/03/25 04:16:14;;;;;;;49.70;21.77;;;;;;;-0.98;100.00;101209.03;5005982;28;20296;-75
2021/03/25 04:18:45;;;;;;;41.60;20.10;;;;;;;-1.02;100.00;101199.53;4985992;28;20193;-75
2021/03/25 04:21:35;;;;;;;47.17;20.47;;;;;;;-1.06;100.00;101205.38;4980681;28;20216;-75
2021/03/25 04:24:07;;;;;;;51.50;22.63;;;;;;;-1.09;100.00;101197.63;4984297;28;20193;-76
2021/03/25 04:26:38;;;;;;;51.73;21.73;;;;;;;-1.06;100.00;101200.25;4973438;28;20206;-75
2021/03/25 04:29:08;;;;;;;54.47;23.77;;;;;;;-1.08;100.00;101203.59;4980349;28;20241;-73
2021/03/25 04:31:34;;;;;;;55.73;22.67;;;;;;;-1.10;100.00;101201.00;4990681;28;20585;-75
2021/03/25 04:34:02;;;;;;;57.30;23.53;;;;;;;-1.06;100.00;101205.38;4985046;28;20214;-73
2021/03/25 04:36:33;;;;;;;59.43;23.93;;;;;;;-1.05;100.00;101201.16;4994438;28;20223;-75
2021/03/25 04:39:01;;;;;;;60.50;23.63;;;;;;;-1.05;100.00;101201.16;4979361;28;20209;-75
2021/03/25 04:41:29;;;;;;;48.23;21.87;;;;;;;-1.09;100.00;101209.53;4984237;28;20658;-75
2021/03/25 04:43:58;;;;;;;49.17;23.13;;;;;;;-1.08;100.00;101201.91;4979013;28;20209;-75
2021/03/25 04:46:46;;;;;;;56.30;23.13;;;;;;;-1.12;100.00;101202.63;4984712;28;20298;-74
2021/03/25 04:49:15;;;;;;;52.90;22.63;;;;;;;-1.10;100.00;101197.56;4999197;28;20231;-75
2021/03/25 04:51:42;;;;;;;53.63;23.43;;;;;;;-1.06;100.00;101204.50;4982841;28;20198;-75
2021/03/25 04:54:11;;;;;;;48.93;22.33;;;;;;;-1.07;100.00;101201.09;4996214;28;20221;-75
2021/03/25 04:56:38;;;;;;;59.57;23.00;;;;;;;-1.04;100.00;101197.75;4980936;28;20201;-74
2021/03/25 04:59:06;;;;;;;48.40;20.60;;;;;;;-1.01;100.00;101203.81;4989899;28;20293;-73
2021/03/25 05:01:33;;;;;;;53.13;21.17;;;;;;;-1.00;100.00;101205.56;4977098;28;20281;-74
2021/03/25 05:04:02;;;;;;;47.70;21.50;;;;;;;-0.97;100.00;101207.34;4976808;28;20236;-75
2021/03/25 05:06:31;;;;;;;50.10;21.23;;;;;;;-0.91;100.00;101216.94;4982725;28;20312;-73
2021/03/25 05:08:58;;;;;;;49.20;21.20;;;;;;;-0.87;100.00;101213.63;4981888;28;20602;-75
2021/03/25 05:11:27;;;;;;;58.93;22.80;;;;;;;-0.84;100.00;101213.72;4979757;28;20561;-74
2021/03/25 05:13:57;;;;;;;50.13;20.40;;;;;;;-0.85;100.00;101215.38;4983349;28;20255;-75
2021/03/25 05:16:34;;;;;;;50.07;20.70;;;;;;;-0.81;100.00;101213.78;4984261;28;20213;-74
2021/03/25 05:19:10;;;;;;;52.03;20.40;;;;;;;-0.79;100.00;101213.03;4984473;28;20239;-75
2021/03/25 05:21:46;;;;;;;49.27;19.30;;;;;;;-0.74;100.00;101217.41;4978372;28;20387;-72
2021/03/25 05:24:23;;;;;;;41.33;18.43;;;;;;;-0.71;100.00;101213.25;4982184;28;20228;-73
2021/03/25 05:26:56;;;;;;;50.20;21.27;;;;;;;-0.67;100.00;101219.31;4984410;28;20745;-74
2021/03/25 05:29:26;;;;;;;49.93;20.93;;;;;;;-0.65;100.00;101210.88;4981275;28;20244;-72
2021/03/25 05:31:53;;;;;;;44.50;20.20;;;;;;;-0.60;100.00;101218.66;4986696;28;20243;-75
2021/03/25 05:34:21;;;;;;;47.53;19.90;;;;;;;-0.58;100.00;101217.91;4978436;28;20247;-75
2021/03/25 05:36:51;;;;;;;45.63;19.17;;;;;;;-0.55;100.00;101219.69;4992773;28;20731;-74
2021/03/25 05:39:18;;;;;;;52.23;21.70;;;;;;;-0.50;100.00;101219.81;4982359;28;20232;-74
2021/03/25 05:41:52;;;;;;;54.10;20.53;;;;;;;-0.48;100.00;101229.28;4985270;28;20205;-74
2021/03/25 05:44:47;;;;;;;51.50;22.33;;;;;;;-0.44;100.00;101228.56;4978024;28;20204;-72
2021/03/25 05:47:34;;;;;;;53.17;20.87;;;;;;;-0.39;100.00;101226.09;4986399;28;20546;-74
2021/03/25 05:50:15;;;;;;;49.23;21.30;;;;;;;-0.37;100.00;101229.56;4981070;28;20236;-75
2021/03/25 05:52:50;;;;;;;52.13;20.77;;;;;;;-0.30;100.00;101226.38;4981867;28;20225;-75
2021/03/25 05:55:48;;;;;;;49.23;21.10;;;;;;;-0.27;100.00;101228.16;4982182;28;20206;-74
2021/03/25 05:58:26;;;;;;;53.60;23.03;;;;;;;-0.22;100.00;101221.47;4986070;28;20296;-75
2021/03/25 06:01:01;;;;;;;61.87;24.53;;;;;;;-0.17;100.00;101232.72;4979701;28;20318;-75
2021/03/25 06:03:30;;;;;;;63.23;25.30;;;;;;;-0.12;100.00;101236.28;4982210;28;20708;-75
2021/03/25 06:05:58;;;;;;;58.77;22.97;;;;;;;-0.06;100.00;101238.13;4975077;28;20285;-75
2021/03/25 06:08:42;;;;;;;57.97;23.47;;;;;;;0.05;100.00;101233.28;4982061;28;20685;-74
2021/03/25 06:11:26;;;;;;;59.63;22.97;;;;;;;0.12;100.00;101238.63;4982954;28;20686;-75
2021/03/25 06:14:03;;;;;;;52.13;21.73;;;;;;;0.20;100.00;101248.22;4981139;28;20235;-74
2021/03/25 06:17:15;;;;;;;55.20;22.60;;;;;;;0.28;100.00;101247.59;4993851;28;20210;-74
2021/03/25 06:19:56;;;;;;;57.87;24.07;;;;;;;0.37;100.00;101249.53;4983439;28;20661;-75
2021/03/25 06:22:28;;;;;;;58.07;23.80;;;;;;;0.47;100.00;101248.91;4979665;28;20664;-75
2021/03/25 06:25:27;;;;;;;65.67;23.43;;;;;;;0.59;100.00;101250.06;4980053;28;20211;-75
2021/03/25 06:28:11;;;;;;;52.07;21.07;;;;;;;0.71;100.00;101247.78;4977702;28;20669;-75
2021/03/25 06:30:41;;;;;;;60.80;23.60;;;;;;;0.86;100.00;101250.72;4983421;28;20224;-74
2021/03/25 06:33:15;;;;;;;65.83;23.60;;;;;;;0.98;100.00;101254.41;4989297;28;20217;-73
2021/03/25 06:35:46;;;;;;;64.07;25.40;;;;;;;1.14;100.00;101261.63;4982612;28;20209;-76
2021/03/25 06:38:18;;;;;;;64.80;24.73;;;;;;;1.30;100.00;101252.53;4983359;28;20206;-73
2021/03/25 06:40:51;;;;;;;65.87;25.87;;;;;;;1.43;100.00;101249.41;4986291;28;20784;-73
2021/03/25 06:43:24;;;;;;;68.33;24.47;;;;;;;1.55;100.00;101255.63;4991759;28;20483;-72
2021/03/25 06:45:55;;;;;;;67.93;24.17;;;;;;;1.66;100.00;101254.19;4984559;28;20244;-75
2021/03/25 06:48:33;;;;;;;57.23;23.87;;;;;;;1.76;100.00;101256.09;4986790;28;20708;-72
2021/03/25 06:51:06;;;;;;;59.33;22.57;;;;;;;1.89;100.00;101252.91;4979018;28;20234;-75
2021/03/25 06:53:34;;;;;;;64.33;22.70;;;;;;;2.02;100.00;101260.88;4984461;28;20705;-70
2021/03/25 06:56:04;;;;;;;68.27;25.30;;;;;;;2.15;100.00;101256.84;4984496;28;20214;-73
2021/03/25 06:58:35;;;;;;;73.50;24.80;;;;;;;2.28;100.00;101274.22;4985261;28;20210;-72
2021/03/25 07:01:06;;;;;;;59.37;23.20;;;;;;;2.43;100.00;101263.34;4973376;28;20223;-72
2021/03/25 07:03:33;;;;;;;71.43;24.57;;;;;;;2.58;100.00;101273.88;4985203;28;20219;-75
2021/03/25 07:06:01;;;;;;;76.07;27.63;;;;;;;2.71;100.00;101263.78;4976830;28;20616;-76
2021/03/25 07:08:31;;;;;;;72.17;27.50;;;;;;;2.84;100.00;101268.31;4979330;28;20235;-71
2021/03/25 07:10:59;;;;;;;77.63;26.47;;;;;;;3.00;100.00;101267.69;4982383;28;20232;-73
2021/03/25 07:13:34;;;;;;;65.37;24.87;;;;;;;3.13;100.00;101273.91;4977432;28;20225;-74
2021/03/25 07:16:00;;;;;;;78.93;25.67;;;;;;;3.27;100.00;101265.50;4981232;28;20193;-72
2021/03/25 07:18:32;;;;;;;81.53;26.53;;;;;;;3.34;100.00;101270.78;4979444;28;20198;-71
2021/03/25 07:21:35;;;;;;;79.27;25.93;;;;;;;3.45;100.00;101275.19;4980189;28;20229;-72
2021/03/25 07:24:04;;;;;;;71.77;24.40;;;;;;;3.60;99.40;101283.16;4978686;28;20233;-72
2021/03/25 07:26:34;;;;;;;88.93;25.97;;;;;;;3.70;99.84;101279.84;4980655;28;20190;-73
2021/03/25 07:29:31;;;;;;;85.60;26.83;;;;;;;3.81;99.51;101282.53;4979539;28;20222;-73
2021/03/25 07:32:12;;;;;;;76.97;25.37;;;;;;;3.94;98.56;101288.72;4981282;28;20550;-71
2021/03/25 07:34:43;;;;;;;84.83;26.63;;;;;;;4.12;97.79;101290.66;4973938;28;20236;-73
2021/03/25 07:37:17;;;;;;;82.53;26.37;;;;;;;4.23;97.27;101291.63;4977487;28;20569;-73
2021/03/25 07:39:48;;;;;;;76.90;27.00;;;;;;;4.36;96.61;101287.44;4984404;28;20221;-72
2021/03/25 07:42:26;;;;;;;79.87;26.50;;;;;;;4.55;96.02;101288.50;4981381;28;20225;-73
2021/03/25 07:44:53;;;;;;;78.67;26.03;;;;;;;4.68;94.46;101292.94;4979473;28;20299;-71
2021/03/25 07:47:30;;;;;;;72.47;25.27;;;;;;;4.86;93.04;101299.13;4985707;28;20232;-73
2021/03/25 07:50:19;;;;;;;74.40;26.97;;;;;;;5.04;92.84;101301.81;4977157;28;20287;-71
2021/03/25 07:52:45;;;;;;;64.87;23.13;;;;;;;5.19;90.67;101295.91;4978496;28;20232;-76
2021/03/25 07:55:13;;;;;;;70.57;23.87;;;;;;;5.31;90.25;101292.53;4985240;28;20398;-73
2021/03/25 07:57:42;;;;;;;60.03;24.13;;;;;;;5.44;89.18;101296.91;4979437;28;20189;-73
2021/03/25 08:00:19;;;;;;;60.10;24.77;;;;;;;5.59;88.52;101292.69;4980865;28;20228;-73
2021/03/25 08:02:45;;;;;;;59.50;22.47;;;;;;;5.77;88.67;101297.97;4991455;28;20687;-72
2021/03/25 08:05:24;;;;;;;53.13;22.40;;;;;;;5.83;86.35;101303.16;4979857;28;20287;-73
2021/03/25 08:07:52;;;;;;;46.50;19.83;;;;;;;5.94;86.69;101291.97;4977898;28;20652;-74
2021/03/25 08:10:28;;;;;;;48.80;21.13;;;;;;;6.00;86.02;101292.91;4982059;28;20217;-73
2021/03/25 08:13:01;;;;;;;44.40;20.53;;;;;;;6.25;85.54;101299.00;4979479;28;20236;-73
2021/03/25 08:15:34;;;;;;;41.33;18.50;;;;;;;6.35;85.13;101302.50;4980605;28;20782;-72
2021/03/25 08:18:41;;;;;;;42.37;18.80;;;;;;;6.39;84.09;101298.19;4975147;28;20215;-72
2021/03/25 08:21:19;;;;;;;38.30;17.43;;;;;;;6.52;84.19;101299.06;4939980;28;20323;-74
2021/03/25 08:24:12;;;;;;;38.77;18.17;;;;;;;6.63;83.25;101302.50;4980991;28;20530;-71
2021/03/25 08:26:48;;;;;;;31.03;16.80;;;;;;;6.81;82.00;101309.47;4986804;28;20202;-73
2021/03/25 08:29:22;;;;;;;34.33;16.73;;;;;;;6.99;83.09;101306.84;4980666;28;20236;-74
2021/03/25 08:31:58;;;;;;;38.43;17.43;;;;;;;7.12;81.73;101312.88;4982502;28;20206;-72
2021/03/25 08:34:40;;;;;;;33.50;16.83;;;;;;;7.25;79.98;101315.50;4969323;28;20689;-73
2021/03/25 08:37:31;;;;;;;31.00;15.67;;;;;;;7.32;78.70;101314.63;4982517;28;20281;-73
2021/03/25 08:40:00;;;;;;;30.00;15.73;;;;;;;7.44;80.28;101312.00;4977969;28;20311;-73
2021/03/25 08:42:30;;;;;;;31.87;15.80;;;;;;;7.57;78.20;101315.41;4976339;28;20197;-73
2021/03/25 08:45:07;;;;;;;32.10;16.30;;;;;;;7.62;79.16;101315.41;4981386;28;20205;-73
2021/03/25 08:47:42;;;;;;;27.20;15.63;;;;;;;7.69;78.19;101317.97;4980466;28;20623;-74
2021/03/25 08:50:27;;;;;;;30.53;15.97;;;;;;;7.75;78.91;101315.34;4975840;28;20238;-70
2021/03/25 08:52:56;;;;;;;31.57;15.33;;;;;;;7.89;78.32;101314.44;4979068;28;20213;-74
2021/03/25 08:55:26;;;;;;;29.83;15.07;;;;;;;8.15;77.18;101317.78;4976672;28;20280;-73
2021/03/25 08:57:57;;;;;;;28.17;15.87;;;;;;;8.32;75.89;101315.09;4972049;28;20749;-70
2021/03/25 09:00:26;;;;;;;30.23;15.07;;;;;;;8.46;74.99;101315.06;4973342;28;20242;-70
2021/03/25 09:02:58;;;;;;;28.03;14.60;;;;;;;8.49;76.19;101314.16;4971190;28;20228;-70
2021/03/25 09:05:28;;;;;;;26.50;14.30;;;;;;;8.59;76.64;101310.63;4973555;28;20224;-73
2021/03/25 09:07:56;;;;;;;27.03;14.53;;;;;;;8.62;75.11;101317.53;4975581;28;21258;-72
2021/03/25 09:10:40;;;;;;;25.53;13.73;;;;;;;8.75;74.70;101313.97;4976679;28;20822;-74
2021/03/25 09:13:11;;;;;;;29.57;14.27;;;;;;;8.81;73.29;101319.16;4976171;28;20253;-72
2021/03/25 09:15:38;;;;;;;28.13;15.03;;;;;;;8.93;72.97;101312.09;4980900;28;20554;-73
2021/03/25 09:18:08;;;;;;;28.73;14.80;;;;;;;9.06;73.11;101316.34;4981447;28;20223;-70
2021/03/25 09:20:45;;;;;;;29.50;15.03;;;;;;;9.11;73.07;101314.53;4976682;28;20829;-72
2021/03/25 09:23:46;;;;;;;29.80;15.17;;;;;;;9.21;71.97;101312.72;4978251;28;20242;-73
2021/03/25 09:26:51;;;;;;;31.37;14.80;;;;;;;9.34;70.51;101313.47;4982562;28;20211;-73
2021/03/25 09:29:20;;;;;;;27.50;14.07;;;;;;;9.40;72.22;101308.19;4970416;28;20774;-71
2021/03/25 09:32:34;;;;;;;25.93;14.03;;;;;;;9.41;71.64;101309.91;4975178;28;20279;-72
2021/03/25 09:35:04;;;;;;;27.77;14.33;;;;;;;9.59;71.34;101307.13;4969798;28;20227;-72
2021/03/25 09:37:32;;;;;;;26.83;14.67;;;;;;;9.59;69.44;101304.53;4975542;28;20296;-71
2021/03/25 09:40:35;;;;;;;27.60;13.20;;;;;;;9.71;69.97;101307.84;4974791;28;20248;-72
2021/03/25 09:43:36;;;;;;;28.67;14.17;;;;;;;10.02;69.11;101296.16;4956025;28;20584;-73
2021/03/25 09:46:30;;;;;;;29.57;15.00;;;;;;;10.18;69.84;101295.97;4979497;28;20263;-72
2021/03/25 09:49:14;;;;;;;25.50;13.57;;;;;;;10.32;68.99;101294.06;4978585;28;20220;-71
2021/03/25 09:51:42;;;;;;;29.70;13.93;;;;;;;10.45;67.49;101293.88;4972367;28;20214;-72
2021/03/25 09:54:21;;;;;;;29.73;15.13;;;;;;;10.47;67.76;101298.22;4978947;28;20200;-72
2021/03/25 09:57:08;;;;;;;25.13;13.30;;;;;;;10.53;67.43;101289.41;4976745;28;20223;-74
2021/03/25 09:59:49;;;;;;;28.40;14.60;;;;;;;10.65;67.36;101290.97;4974313;28;20253;-72
2021/03/25 10:02:51;;;;;;;24.70;13.37;;;;;;;10.77;67.41;101294.25;4979961;28;20297;-72
2021/03/25 10:05:27;;;;;;;28.03;14.47;;;;;;;10.88;65.03;101298.44;4983682;28;20207;-73
2021/03/25 10:07:56;;;;;;;27.60;13.70;;;;;;;10.94;65.77;101298.31;4979673;28;20764;-72
2021/03/25 10:10:40;;;;;;;27.87;13.90;;;;;;;11.03;66.19;101290.34;4980612;28;20436;-73
2021/03/25 10:13:23;;;;;;;30.67;14.30;;;;;;;11.20;65.62;101283.97;4975831;28;20230;-74
2021/03/25 10:15:55;;;;;;;24.97;13.20;;;;;;;11.32;63.97;101296.78;4983567;28;20198;-72
2021/03/25 10:18:53;;;;;;;28.77;15.13;;;;;;;11.43;63.78;101293.97;4982605;28;20268;-70
2021/03/25 10:21:54;;;;;;;32.33;15.33;;;;;;;11.65;65.03;101290.06;4980066;28;20238;-74
2021/03/25 10:24:25;;;;;;;26.80;12.23;;;;;;;11.61;63.23;101283.19;4898867;29;20899;-71
2021/03/25 10:27:01;;;;;;;26.60;13.27;;;;;;;11.72;62.69;101283.81;4893282;29;20271;-73
2021/03/25 10:29:32;;;;;;;28.13;13.97;;;;;;;11.93;62.42;101295.59;4940852;28;20239;-70
2021/03/25 10:32:00;;;;;;;25.60;13.13;;;;;;;11.87;61.39;101287.88;4979244;28;20643;-73
2021/03/25 10:34:30;;;;;;;29.07;12.70;;;;;;;11.92;61.92;101279.94;4979022;28;20223;-74
2021/03/25 10:37:02;;;;;;;27.03;14.10;;;;;;;12.06;61.92;101280.50;4978398;28;20878;-74
2021/03/25 10:39:32;;;;;;;27.10;13.80;;;;;;;12.22;62.52;101273.19;4977926;28;20232;-74
2021/03/25 10:42:13;;;;;;;25.90;13.20;;;;;;;12.18;60.89;101271.56;4969059;28;20213;-73
2021/03/25 10:44:39;;;;;;;26.77;12.57;;;;;;;12.28;61.47;101270.44;4982784;28;20669;-72
2021/03/25 10:47:07;;;;;;;26.70;13.67;;;;;;;12.42;61.57;101269.28;4978560;28;20200;-74
2021/03/25 10:49:42;;;;;;;26.40;13.27;;;;;;;12.48;61.32;101269.13;4980012;28;21068;-74
2021/03/25 10:52:17;;;;;;;25.17;13.70;;;;;;;12.58;61.52;101267.16;4978540;28;20226;-71
2021/03/25 10:54:46;;;;;;;23.83;13.10;;;;;;;12.69;61.61;101268.59;4978360;28;20284;-73
2021/03/25 10:57:18;;;;;;;27.63;14.33;;;;;;;12.70;60.09;101272.09;4975186;28;20268;-70
2021/03/25 10:59:55;;;;;;;29.30;13.87;;;;;;;12.64;58.30;101270.47;4979834;28;20253;-71
2021/03/25 11:02:25;;;;;;;26.47;12.60;;;;;;;12.73;58.58;101265.91;4971948;28;20201;-72
2021/03/25 11:05:06;;;;;;;26.33;12.93;;;;;;;12.90;58.32;101268.13;4975637;28;20195;-71
2021/03/25 11:07:39;;;;;;;27.10;12.03;;;;;;;12.97;59.40;101262.66;4979169;28;20256;-74
2021/03/25 11:10:18;;;;;;;26.93;12.23;;;;;;;13.10;57.63;101263.19;4975741;28;20228;-73
2021/03/25 11:12:44;;;;;;;25.90;11.70;;;;;;;13.13;57.29;101257.03;4981517;28;20656;-72
2021/03/25 11:15:20;;;;;;;27.23;11.53;;;;;;;13.18;56.55;101266.47;4972983;28;20628;-70
2021/03/25 11:17:47;;;;;;;24.70;12.00;;;;;;;13.34;57.89;101261.72;4982618;28;20379;-74
2021/03/25 11:20:17;;;;;;;25.77;11.07;;;;;;;13.45;57.48;101250.94;4977861;28;20235;-70
2021/03/25 11:22:44;;;;;;;26.33;11.83;;;;;;;13.65;57.96;101255.63;4980212;28;20292;-74
2021/03/25 11:25:17;;;;;;;20.67;10.87;;;;;;;13.68;56.38;101254.66;4975869;28;20746;-72
2021/03/25 11:27:44;;;;;;;22.73;11.33;;;;;;;13.74;55.76;101250.13;4980119;28;20239;-73
2021/03/25 11:30:28;;;;;;;27.80;11.13;;;;;;;13.77;53.64;101260.50;4969390;28;20332;-72
2021/03/25 11:32:54;;;;;;;24.63;10.17;;;;;;;13.74;53.83;101255.34;4980183;28;20243;-73
2021/03/25 11:35:28;;;;;;;26.33;11.07;;;;;;;13.83;53.18;101256.84;4982599;28;20631;-72
2021/03/25 11:37:55;;;;;;;24.80;11.90;;;;;;;13.94;54.95;101256.53;4992987;28;20249;-71
2021/03/25 11:40:41;;;;;;;22.80;10.27;;;;;;;13.99;54.30;101250.22;4981105;28;20306;-71